Ternholm — OWIM2 — position and weather

sailwx.info

Track history (hours):
 
Tides and Currents Weather Stations Pressure Air Temp Water Temp Dewpoint Dewpoint Depression Visibility Wind Speed Wind Dir Waves Ship Positions

Ternholm

Last reported at 2014-Jul-22 01:33 UTC. Time now 2014-Jul-23 19:44 UTC.
Position N 58°54' E 019°21'.

Length 141 m; draft 8.6 m.

Type: Ship (hazmat cat C). MMSI: 219076000.

Date/timePositionNaut miles runAvg speedWind from/ knotsBaromVisibWave heightAir tempDewpointWater temp
2014-Jul-22 01:33N 58°54' E 019°21'1211.8
2014-Jul-22 00:33N 58°44' E 019°07'1211.7
2014-Jul-21 23:33N 58°34' E 018°55'1211.9
2014-Jul-21 22:33N 58°24' E 018°44'1211.8
2014-Jul-21 21:33N 58°14' E 018°33'1211.9
2014-Jul-21 20:33N 58°03' E 018°22'311.8
2014-Jul-21 20:18N 58°01' E 018°19'911.8
2014-Jul-21 19:33N 57°53' E 018°12'1212.0
2014-Jul-21 18:33N 57°42' E 018°02'1211.7
2014-Jul-21 17:33N 57°32' E 017°52'1211.7
2014-Jul-21 16:33N 57°21' E 017°43'1212.3
2014-Jul-21 15:33N 57°09' E 017°35'1212.0
2014-Jul-21 14:33N 56°58' E 017°28'1211.7
2014-Jul-21 13:33N 56°47' E 017°21'1313.1
2014-Jul-21 12:33N 56°35' E 017°13'1211.8
2014-Jul-21 11:33N 56°24' E 017°04'2511.7
2014-Jul-21 09:27N 56°02' E 016°43'1111.9
2014-Jul-21 08:33N 55°56' E 016°27'6 5.6
2014-Jul-21 07:33N 55°54' E 016°19'1311.4
2014-Jul-21 06:26N 55°48' E 015°58'1011.8
2014-Jul-21 05:33N 55°43' E 015°42'1211.7
2014-Jul-21 04:33N 55°38' E 015°23'1211.6
2014-Jul-21 03:33N 55°32' E 015°05'1211.7
2014-Jul-21 02:33N 55°26' E 014°47'1211.7
2014-Jul-21 01:33N 55°19' E 014°32'1211.8
2014-Jul-21 00:33N 55°09' E 014°19'1211.7
2014-Jul-20 23:33N 55°01' E 014°06'1211.8
2014-Jul-20 22:33N 54°57' E 013°46'1211.8
2014-Jul-20 21:33N 54°53' E 013°26'1211.9
2014-Jul-20 20:33N 54°50' E 013°07'1211.9
2014-Jul-20 19:33N 54°46' E 012°47'1211.9
2014-Jul-20 18:33N 54°40' E 012°30'1211.9
2014-Jul-20 17:33N 54°32' E 012°15'1010.3
2014-Jul-20 16:33N 54°24' E 012°02'1212.0
2014-Jul-20 15:33N 54°26' E 011°41'1211.7
2014-Jul-20 14:33N 54°31' E 011°24'1211.7
2014-Jul-20 13:33N 54°37' E 011°06'1110.8
2014-Jul-20 12:31N 54°44' E 010°52'1110.9
2014-Jul-20 11:29N 54°56' E 010°54'5210.6
2014-Jul-20 06:33N 55°48' E 010°48'1111.2
2014-Jul-20 05:33N 55°57' E 010°60'1111.5
2014-Jul-20 04:33N 56°07' E 011°10'1211.6
2014-Jul-20 03:33N 56°16' E 011°22'1211.6
2014-Jul-20 02:33N 56°26' E 011°33'1211.6
2014-Jul-20 01:32N 56°37' E 011°43'1211.1
2014-Jul-20 00:28N 56°48' E 011°51'1211.8
2014-Jul-19 23:25N 56°59' E 011°43'1112.1
2014-Jul-19 22:33N 57°09' E 011°36'1211.9
2014-Jul-19 21:33N 57°20' E 011°29'1110.7
2014-Jul-19 20:33N 57°31' E 011°32'1111.0
2014-Jul-19 19:33N 57°39' E 011°45'5 4.5
2014-Jul-19 18:33N 57°41' E 011°53'0 0.0
2014-Jul-19 17:30N 57°41' E 011°53'0 0.0
2014-Jul-19 16:33N 57°41' E 011°53'0 0.0
2014-Jul-19 15:33N 57°41' E 011°53'0 0.0
2014-Jul-19 14:33N 57°41' E 011°53'0 0.0
2014-Jul-19 13:33N 57°41' E 011°53'0 0.0
2014-Jul-19 12:33N 57°41' E 011°53'0 0.0
2014-Jul-19 11:33N 57°41' E 011°53'0 0.0
2014-Jul-19 10:33N 57°41' E 011°53'0 0.0
2014-Jul-19 09:33N 57°41' E 011°53'0 0.0
2014-Jul-19 08:33N 57°41' E 011°53'0 0.0
2014-Jul-19 07:33N 57°41' E 011°53'0 0.0
2014-Jul-19 06:33N 57°41' E 011°53'0 0.0
2014-Jul-19 05:32N 57°41' E 011°53'0 0.0
2014-Jul-19 04:32N 57°41' E 011°53'0 0.0
2014-Jul-19 03:32N 57°41' E 011°53'0 0.0
2014-Jul-19 02:32N 57°41' E 011°53'0 0.0
2014-Jul-19 01:32N 57°41' E 011°53'0 0.0
2014-Jul-19 00:32N 57°41' E 011°53'0 0.0
2014-Jul-18 23:32N 57°41' E 011°53'0 0.0
2014-Jul-18 22:32N 57°41' E 011°53'0 0.0
2014-Jul-18 21:32N 57°41' E 011°53'0 0.0
2014-Jul-18 20:32N 57°41' E 011°53'0 0.0
2014-Jul-18 19:32N 57°41' E 011°53'0 0.0
2014-Jul-18 18:32N 57°41' E 011°53'2 1.7
2014-Jul-18 17:34N 57°41' E 011°50'1111.2
2014-Jul-18 16:33N 57°31' E 011°39'1212.0
2014-Jul-18 15:34N 57°20' E 011°46'1211.7
2014-Jul-18 14:31N 57°09' E 011°58'1212.0
2014-Jul-18 13:32N 56°58' E 012°03'1212.1
2014-Jul-18 12:34N 56°47' E 012°09'1312.1
2014-Jul-18 11:31N 56°34' E 012°14'1212.1
2014-Jul-18 10:33N 56°23' E 012°17'1211.9
2014-Jul-18 09:34N 56°12' E 012°26'1111.2
2014-Jul-18 08:34N 56°04' E 012°39'1110.9
2014-Jul-18 07:34N 55°53' E 012°44'1110.8
2014-Jul-18 06:33N 55°42' E 012°41'1111.5
2014-Jul-18 05:34N 55°31' E 012°42'1212.2
2014-Jul-18 04:34N 55°19' E 012°41'1111.4
2014-Jul-18 03:34N 55°16' E 012°60'1111.4
2014-Jul-18 02:33N 55°15' E 013°20'1111.4
2014-Jul-18 01:34N 55°15' E 013°40'1211.7
2014-Jul-18 00:34N 55°13' E 014°00'1110.9
2014-Jul-17 23:34N 55°15' E 014°19'1111.4
2014-Jul-17 22:34N 55°24' E 014°32'1211.7
2014-Jul-17 21:34N 55°31' E 014°48'1111.4
2014-Jul-17 20:33N 55°37' E 015°06'1111.4
2014-Jul-17 19:34N 55°42' E 015°24'1211.7
2014-Jul-17 18:31N 55°48' E 015°43'1111.6
2014-Jul-17 17:33N 55°54' E 015°60'1211.7
2014-Jul-17 16:34N 55°60' E 016°18'1211.7
2014-Jul-17 15:34N 56°06' E 016°35'4011.5
2014-Jul-17 12:07N 56°42' E 017°08'711.6
2014-Jul-17 11:30N 56°48' E 017°12'1111.8
2014-Jul-17 10:33N 56°58' E 017°20'1211.8
2014-Jul-17 09:32N 57°10' E 017°28'1211.8
2014-Jul-17 08:33N 57°20' E 017°35'1211.6
2014-Jul-17 07:33N 57°31' E 017°43'2611.4
2014-Jul-17 05:17N 57°54' E 018°07'  
2014-Jul-12 09:04N 57°59' E 018°18'611.7
2014-Jul-12 08:34N 57°54' E 018°13'18 7.6
2014-Jul-12 06:15N 57°38' E 017°58'811.5
2014-Jul-12 05:33N 57°31' E 017°51'1211.6
2014-Jul-12 04:32N 57°19' E 017°45'1111.7
2014-Jul-12 03:33N 57°08' E 017°43'  
Track history (hours):
 
Tides and Currents Weather Stations Pressure Air Temp Water Temp Dewpoint Dewpoint Depression Visibility Wind Speed Wind Dir Waves Ship Positions

Ternholm

Last reported at 2014-Jul-22 01:33 UTC. Time now 2014-Jul-23 19:44 UTC.
Position N 58°54' E 019°21'.

Length 141 m; draft 8.6 m.

Type: Ship (hazmat cat C). MMSI: 219076000.

Date/timePositionNaut miles runAvg speedWind from/ knotsBaromVisibWave heightAir tempDewpointWater temp
2014-Jul-22 01:33N 58°54' E 019°21'1211.8
2014-Jul-22 00:33N 58°44' E 019°07'1211.7
2014-Jul-21 23:33N 58°34' E 018°55'1211.9
2014-Jul-21 22:33N 58°24' E 018°44'1211.8
2014-Jul-21 21:33N 58°14' E 018°33'1211.9
2014-Jul-21 20:33N 58°03' E 018°22'311.8
2014-Jul-21 20:18N 58°01' E 018°19'911.8
2014-Jul-21 19:33N 57°53' E 018°12'1212.0
2014-Jul-21 18:33N 57°42' E 018°02'1211.7
2014-Jul-21 17:33N 57°32' E 017°52'1211.7
2014-Jul-21 16:33N 57°21' E 017°43'1212.3
2014-Jul-21 15:33N 57°09' E 017°35'1212.0
2014-Jul-21 14:33N 56°58' E 017°28'1211.7
2014-Jul-21 13:33N 56°47' E 017°21'1313.1
2014-Jul-21 12:33N 56°35' E 017°13'1211.8
2014-Jul-21 11:33N 56°24' E 017°04'2511.7
2014-Jul-21 09:27N 56°02' E 016°43'1111.9
2014-Jul-21 08:33N 55°56' E 016°27'6 5.6
2014-Jul-21 07:33N 55°54' E 016°19'1311.4
2014-Jul-21 06:26N 55°48' E 015°58'1011.8
2014-Jul-21 05:33N 55°43' E 015°42'1211.7
2014-Jul-21 04:33N 55°38' E 015°23'1211.6
2014-Jul-21 03:33N 55°32' E 015°05'1211.7
2014-Jul-21 02:33N 55°26' E 014°47'1211.7
2014-Jul-21 01:33N 55°19' E 014°32'1211.8
2014-Jul-21 00:33N 55°09' E 014°19'1211.7
2014-Jul-20 23:33N 55°01' E 014°06'1211.8
2014-Jul-20 22:33N 54°57' E 013°46'1211.8
2014-Jul-20 21:33N 54°53' E 013°26'1211.9
2014-Jul-20 20:33N 54°50' E 013°07'1211.9
2014-Jul-20 19:33N 54°46' E 012°47'1211.9
2014-Jul-20 18:33N 54°40' E 012°30'1211.9
2014-Jul-20 17:33N 54°32' E 012°15'1010.3
2014-Jul-20 16:33N 54°24' E 012°02'1212.0
2014-Jul-20 15:33N 54°26' E 011°41'1211.7
2014-Jul-20 14:33N 54°31' E 011°24'1211.7
2014-Jul-20 13:33N 54°37' E 011°06'1110.8
2014-Jul-20 12:31N 54°44' E 010°52'1110.9
2014-Jul-20 11:29N 54°56' E 010°54'5210.6
2014-Jul-20 06:33N 55°48' E 010°48'1111.2
2014-Jul-20 05:33N 55°57' E 010°60'1111.5
2014-Jul-20 04:33N 56°07' E 011°10'1211.6
2014-Jul-20 03:33N 56°16' E 011°22'1211.6
2014-Jul-20 02:33N 56°26' E 011°33'1211.6
2014-Jul-20 01:32N 56°37' E 011°43'1211.1
2014-Jul-20 00:28N 56°48' E 011°51'1211.8
2014-Jul-19 23:25N 56°59' E 011°43'1112.1
2014-Jul-19 22:33N 57°09' E 011°36'1211.9
2014-Jul-19 21:33N 57°20' E 011°29'1110.7
2014-Jul-19 20:33N 57°31' E 011°32'1111.0
2014-Jul-19 19:33N 57°39' E 011°45'5 4.5
2014-Jul-19 18:33N 57°41' E 011°53'0 0.0
2014-Jul-19 17:30N 57°41' E 011°53'0 0.0
2014-Jul-19 16:33N 57°41' E 011°53'0 0.0
2014-Jul-19 15:33N 57°41' E 011°53'0 0.0
2014-Jul-19 14:33N 57°41' E 011°53'0 0.0
2014-Jul-19 13:33N 57°41' E 011°53'0 0.0
2014-Jul-19 12:33N 57°41' E 011°53'0 0.0
2014-Jul-19 11:33N 57°41' E 011°53'0 0.0
2014-Jul-19 10:33N 57°41' E 011°53'0 0.0
2014-Jul-19 09:33N 57°41' E 011°53'0 0.0
2014-Jul-19 08:33N 57°41' E 011°53'0 0.0
2014-Jul-19 07:33N 57°41' E 011°53'0 0.0
2014-Jul-19 06:33N 57°41' E 011°53'0 0.0
2014-Jul-19 05:32N 57°41' E 011°53'0 0.0
2014-Jul-19 04:32N 57°41' E 011°53'0 0.0
2014-Jul-19 03:32N 57°41' E 011°53'0 0.0
2014-Jul-19 02:32N 57°41' E 011°53'0 0.0
2014-Jul-19 01:32N 57°41' E 011°53'0 0.0
2014-Jul-19 00:32N 57°41' E 011°53'0 0.0
2014-Jul-18 23:32N 57°41' E 011°53'0 0.0
2014-Jul-18 22:32N 57°41' E 011°53'0 0.0
2014-Jul-18 21:32N 57°41' E 011°53'0 0.0
2014-Jul-18 20:32N 57°41' E 011°53'0 0.0
2014-Jul-18 19:32N 57°41' E 011°53'0 0.0
2014-Jul-18 18:32N 57°41' E 011°53'2 1.7
2014-Jul-18 17:34N 57°41' E 011°50'1111.2
2014-Jul-18 16:33N 57°31' E 011°39'1212.0
2014-Jul-18 15:34N 57°20' E 011°46'1211.7
2014-Jul-18 14:31N 57°09' E 011°58'1212.0
2014-Jul-18 13:32N 56°58' E 012°03'1212.1
2014-Jul-18 12:34N 56°47' E 012°09'1312.1
2014-Jul-18 11:31N 56°34' E 012°14'1212.1
2014-Jul-18 10:33N 56°23' E 012°17'1211.9
2014-Jul-18 09:34N 56°12' E 012°26'1111.2
2014-Jul-18 08:34N 56°04' E 012°39'1110.9
2014-Jul-18 07:34N 55°53' E 012°44'1110.8
2014-Jul-18 06:33N 55°42' E 012°41'1111.5
2014-Jul-18 05:34N 55°31' E 012°42'1212.2
2014-Jul-18 04:34N 55°19' E 012°41'1111.4
2014-Jul-18 03:34N 55°16' E 012°60'1111.4
2014-Jul-18 02:33N 55°15' E 013°20'1111.4
2014-Jul-18 01:34N 55°15' E 013°40'1211.7
2014-Jul-18 00:34N 55°13' E 014°00'1110.9
2014-Jul-17 23:34N 55°15' E 014°19'1111.4
2014-Jul-17 22:34N 55°24' E 014°32'1211.7
2014-Jul-17 21:34N 55°31' E 014°48'1111.4
2014-Jul-17 20:33N 55°37' E 015°06'1111.4
2014-Jul-17 19:34N 55°42' E 015°24'1211.7
2014-Jul-17 18:31N 55°48' E 015°43'1111.6
2014-Jul-17 17:33N 55°54' E 015°60'1211.7
2014-Jul-17 16:34N 55°60' E 016°18'1211.7
2014-Jul-17 15:34N 56°06' E 016°35'4011.5
2014-Jul-17 12:07N 56°42' E 017°08'711.6
2014-Jul-17 11:30N 56°48' E 017°12'1111.8
2014-Jul-17 10:33N 56°58' E 017°20'1211.8
2014-Jul-17 09:32N 57°10' E 017°28'1211.8
2014-Jul-17 08:33N 57°20' E 017°35'1211.6
2014-Jul-17 07:33N 57°31' E 017°43'2611.4
2014-Jul-17 05:17N 57°54' E 018°07'  
2014-Jul-12 09:04N 57°59' E 018°18'611.7
2014-Jul-12 08:34N 57°54' E 018°13'18 7.6
2014-Jul-12 06:15N 57°38' E 017°58'811.5
2014-Jul-12 05:33N 57°31' E 017°51'1211.6
2014-Jul-12 04:32N 57°19' E 017°45'1111.7
2014-Jul-12 03:33N 57°08' E 017°43'  

Dump ship's entire track history